Terminal Aerodrome Forecast
Issued by NWS Charleston, WV

Current Version | Previous Version | Graphics & Text | Print | Product List | Glossary On
Versions: 1 2 3 4 5 6 7 8 9 10 11 12 13 14 15 16 17 18 19 20 21
000
FTUS41 KRLX 041516 AAA
TAFHTS
TAF AMD
KHTS 041516Z 0415/0512 00000KT P6SM SCT035
     FM041700 00000KT P6SM BKN040
     FM042000 VRB03KT P6SM VCTS BKN040CB
     FM042300 00000KT P6SM SCT040
     FM050500 00000KT 5SM BR SCT040
     FM050800 00000KT 2SM BR SCT040=

USA.gov is the U.S. government's official web portal to all federal, state and local government web resources and services.